Time;durP1;ratioP1;P1;durP2;ratioP2;P2;SDS_P1;SDS_P2;PMS_P1;PMS_P2;Temp;Humidity;BMP_temperature;BMP_pressure;BME280_temperature;BME280_humidity;BME280_pressure;Samples;Min_cycle;Max_cycle;Signal;HPM_P1;HPM_P2
2022/12/04 00:01:48;;;;;;;45.37;25.43;;;5.10;1.00;;;;;;4989203;28;20207;-59
2022/12/04 00:04:13;;;;;;;56.07;26.80;;;5.00;1.00;;;;;;4990854;28;20233;-57
2022/12/04 00:06:39;;;;;;;47.47;27.63;;;4.90;1.00;;;;;;4968795;28;20197;-58
2022/12/04 00:09:04;;;;;;;44.87;25.60;;;4.90;1.00;;;;;;4971846;28;20213;-60
2022/12/04 00:11:32;;;;;;;48.70;26.17;;;4.90;1.00;;;;;;4990908;28;20560;-59
2022/12/04 00:13:59;;;;;;;48.17;25.57;;;5.00;1.00;;;;;;4992596;28;20201;-56
2022/12/04 00:16:28;;;;;;;54.30;26.47;;;4.60;1.00;;;;;;4989140;28;20461;-58
2022/12/04 00:18:54;;;;;;;48.43;24.47;;;5.00;1.00;;;;;;4994866;28;20930;-58
2022/12/04 00:21:21;;;;;;;50.00;26.00;;;5.00;1.00;;;;;;5001267;28;20495;-58
2022/12/04 00:23:48;;;;;;;51.90;26.63;;;5.00;1.00;;;;;;4990418;28;20850;-61
2022/12/04 00:26:17;;;;;;;51.00;27.00;;;5.00;1.00;;;;;;4989785;28;20810;-57
2022/12/04 00:28:43;;;;;;;51.47;25.87;;;5.00;1.00;;;;;;5005142;28;20409;-58
2022/12/04 00:31:12;;;;;;;51.43;27.17;;;5.00;1.00;;;;;;4987783;28;23220;-58
2022/12/04 00:33:38;;;;;;;48.60;26.10;;;4.90;1.00;;;;;;4989315;28;20455;-57
2022/12/04 00:36:08;;;;;;;48.77;26.80;;;4.90;1.00;;;;;;4987773;28;20514;-58
2022/12/04 00:38:34;;;;;;;53.03;26.40;;;4.90;1.00;;;;;;4993144;28;20427;-58
2022/12/04 00:41:00;;;;;;;48.10;26.90;;;4.90;1.00;;;;;;4985930;28;20469;-58
2022/12/04 00:43:27;;;;;;;46.43;24.97;;;4.90;1.00;;;;;;5011264;28;20472;-57
2022/12/04 00:45:52;;;;;;;44.00;25.07;;;4.60;1.00;;;;;;5002677;28;20852;-58
2022/12/04 00:48:19;;;;;;;52.83;27.27;;;4.80;1.00;;;;;;4990684;28;20482;-59
2022/12/04 00:50:44;;;;;;;48.50;25.10;;;4.80;1.00;;;;;;4988988;28;20281;-58
2022/12/04 00:53:11;;;;;;;51.03;25.47;;;4.70;1.00;;;;;;4990820;28;20543;-58
2022/12/04 00:55:38;;;;;;;52.00;28.93;;;4.70;1.00;;;;;;4990361;28;20542;-56
2022/12/04 00:58:04;;;;;;;48.00;27.20;;;4.70;1.00;;;;;;4991402;28;20455;-57
2022/12/04 01:00:29;;;;;;;49.63;27.33;;;4.60;1.00;;;;;;5002097;28;20445;-57
2022/12/04 01:02:55;;;;;;;44.90;26.50;;;4.70;1.00;;;;;;5012331;28;20203;-58
2022/12/04 01:05:21;;;;;;;50.80;29.60;;;4.70;1.00;;;;;;4987760;28;20456;-58
2022/12/04 01:07:46;;;;;;;50.27;27.47;;;4.80;1.00;;;;;;4988427;28;20512;-58
2022/12/04 01:10:13;;;;;;;47.90;27.23;;;4.80;1.00;;;;;;4989483;28;20550;-58
2022/12/04 01:12:38;;;;;;;58.67;27.93;;;4.80;1.00;;;;;;4991401;28;20708;-57
2022/12/04 01:15:05;;;;;;;52.60;26.90;;;4.90;1.00;;;;;;5000277;28;20425;-59
2022/12/04 01:17:30;;;;;;;52.00;26.30;;;4.90;1.00;;;;;;4997550;28;20693;-59
2022/12/04 01:19:56;;;;;;;49.27;26.97;;;4.90;1.00;;;;;;4990122;28;20460;-58
2022/12/04 01:22:21;;;;;;;49.90;29.13;;;4.90;1.00;;;;;;4987373;28;20243;-57
2022/12/04 01:24:47;;;;;;;45.90;25.90;;;4.90;1.00;;;;;;4989332;28;20208;-59
2022/12/04 01:27:13;;;;;;;48.63;25.67;;;4.90;1.00;;;;;;4990264;28;20676;-57
2022/12/04 01:29:38;;;;;;;52.83;27.73;;;5.00;1.00;;;;;;4988969;28;20195;-58
2022/12/04 01:32:04;;;;;;;43.77;24.83;;;5.00;1.00;;;;;;4991313;28;20198;-57
2022/12/04 01:34:30;;;;;;;52.30;26.30;;;4.90;1.00;;;;;;4990271;28;20848;-58
2022/12/04 01:36:55;;;;;;;51.67;27.30;;;4.90;1.00;;;;;;4997957;28;20236;-57
2022/12/04 01:39:21;;;;;;;48.93;26.90;;;4.90;1.00;;;;;;4973514;28;20189;-59
2022/12/04 01:41:46;;;;;;;58.10;29.13;;;4.90;1.00;;;;;;4989567;28;20266;-57
2022/12/04 01:44:22;;;;;;;59.77;28.57;;;4.90;1.00;;;;;;4991723;28;20732;-57
2022/12/04 01:46:53;;;;;;;50.60;27.63;;;4.90;1.00;;;;;;4998691;28;20535;-57
2022/12/04 01:49:27;;;;;;;48.07;26.83;;;4.90;1.00;;;;;;4991099;28;20489;-58
2022/12/04 01:52:00;;;;;;;48.27;24.47;;;5.00;1.00;;;;;;4988843;28;20779;-57
2022/12/04 01:54:33;;;;;;;50.73;27.47;;;5.00;1.00;;;;;;4991663;28;20733;-58
2022/12/04 01:57:06;;;;;;;44.20;24.50;;;4.90;1.00;;;;;;4988150;28;20452;-57
2022/12/04 01:59:37;;;;;;;59.30;28.10;;;4.90;1.00;;;;;;4990442;28;20455;-57
2022/12/04 02:02:09;;;;;;;48.40;26.30;;;4.80;1.00;;;;;;4986908;28;20829;-57
2022/12/04 02:04:35;;;;;;;50.80;26.80;;;4.80;1.00;;;;;;4988767;28;20969;-57
2022/12/04 02:07:01;;;;;;;51.60;26.77;;;4.80;1.00;;;;;;4989600;28;20423;-58
2022/12/04 02:09:27;;;;;;;59.57;31.40;;;4.80;1.00;;;;;;4989149;28;20443;-57
2022/12/04 02:12:05;;;;;;;54.13;26.43;;;4.80;1.00;;;;;;4985168;28;20368;-58
2022/12/04 02:14:42;;;;;;;49.07;28.20;;;4.80;1.00;;;;;;4997196;28;20439;-58
2022/12/04 02:17:32;;;;;;;46.20;24.50;;;4.90;1.00;;;;;;4989601;28;20439;-57
2022/12/04 02:20:17;;;;;;;55.10;28.90;;;4.90;1.00;;;;;;4987874;28;21006;-58
2022/12/04 02:23:34;;;;;;;49.13;26.60;;;4.80;1.00;;;;;;4988734;28;20506;-57
2022/12/04 02:26:25;;;;;;;50.60;29.17;;;4.80;1.00;;;;;;4933431;28;20469;-57
2022/12/04 02:28:56;;;;;;;51.93;27.93;;;4.80;1.00;;;;;;4997208;28;20419;-58
2022/12/04 02:31:29;;;;;;;47.30;25.57;;;4.90;1.00;;;;;;4994380;28;20498;-57
2022/12/04 02:34:22;;;;;;;50.00;27.07;;;5.00;1.00;;;;;;4989910;28;20440;-58
2022/12/04 02:37:03;;;;;;;50.93;26.33;;;5.10;1.00;;;;;;4984037;28;20445;-58
2022/12/04 02:39:37;;;;;;;48.37;26.30;;;5.10;1.00;;;;;;4987392;28;20782;-58
2022/12/04 02:42:02;;;;;;;53.23;28.50;;;5.20;1.00;;;;;;4989680;28;20456;-57
2022/12/04 02:44:41;;;;;;;48.40;27.73;;;5.20;1.00;;;;;;4990725;28;20426;-57
2022/12/04 02:47:11;;;;;;;53.03;28.27;;;5.30;1.00;;;;;;4991180;28;20686;-59
2022/12/04 02:49:45;;;;;;;49.33;28.57;;;5.30;1.00;;;;;;5003004;28;20451;-58
2022/12/04 02:52:14;;;;;;;49.93;27.97;;;5.20;1.00;;;;;;4990068;28;20976;-58
2022/12/04 02:54:49;;;;;;;49.20;27.60;;;5.20;1.00;;;;;;4990849;28;20681;-57
2022/12/04 02:57:23;;;;;;;52.80;28.57;;;5.20;1.00;;;;;;4985576;28;20463;-57
2022/12/04 02:59:50;;;;;;;52.10;28.23;;;5.30;1.00;;;;;;4987799;28;20480;-57
2022/12/04 03:02:58;;;;;;;49.60;27.37;;;5.40;1.00;;;;;;4989679;28;20450;-58
2022/12/04 03:05:39;;;;;;;51.83;28.17;;;5.20;1.00;;;;;;4983849;28;20549;-58
2022/12/04 03:08:14;;;;;;;56.27;28.03;;;5.20;1.00;;;;;;4970595;28;20439;-56
2022/12/04 03:10:47;;;;;;;53.77;28.50;;;5.20;1.00;;;;;;4987864;28;20460;-59
2022/12/04 03:13:34;;;;;;;50.23;29.27;;;5.20;1.00;;;;;;4999672;28;20461;-57
2022/12/04 03:16:19;;;;;;;46.97;26.07;;;5.20;1.00;;;;;;4986614;28;20571;-58
2022/12/04 03:18:50;;;;;;;54.77;28.60;;;5.10;1.00;;;;;;4989151;28;20482;-58
2022/12/04 03:21:20;;;;;;;54.37;27.70;;;5.00;1.00;;;;;;4986182;28;20472;-56
2022/12/04 03:24:05;;;;;;;54.17;29.57;;;4.90;1.00;;;;;;4988120;28;20831;-58
2022/12/04 03:26:36;;;;;;;47.10;27.53;;;4.90;1.00;;;;;;4989927;28;21008;-57
2022/12/04 03:29:14;;;;;;;50.50;28.17;;;4.90;1.00;;;;;;4988572;28;20799;-59
2022/12/04 03:31:59;;;;;;;55.23;28.47;;;4.90;1.00;;;;;;4971170;28;20449;-58
2022/12/04 03:34:50;;;;;;;59.40;29.50;;;4.90;1.00;;;;;;4985563;28;20456;-56
2022/12/04 03:37:22;;;;;;;56.93;29.53;;;4.90;1.00;;;;;;4982954;28;20464;-57
2022/12/04 03:39:47;;;;;;;51.87;29.17;;;5.00;1.00;;;;;;4989082;28;20502;-59
2022/12/04 03:42:22;;;;;;;52.90;28.77;;;5.00;1.00;;;;;;4990255;28;20805;-56
2022/12/04 03:44:56;;;;;;;52.73;30.07;;;5.10;1.00;;;;;;4982648;28;20216;-58
2022/12/04 03:47:39;;;;;;;46.93;27.70;;;5.00;1.00;;;;;;4989884;28;20847;-58
2022/12/04 03:50:08;;;;;;;51.00;28.50;;;5.10;1.00;;;;;;4984895;28;20446;-58
2022/12/04 03:53:14;;;;;;;50.87;29.53;;;5.10;1.00;;;;;;4989180;28;21017;-58
2022/12/04 03:55:59;;;;;;;55.37;27.90;;;5.30;1.00;;;;;;4944813;28;20448;-58
2022/12/04 03:58:29;;;;;;;49.37;28.13;;;5.30;1.00;;;;;;4987862;28;20429;-59
2022/12/04 04:00:57;;;;;;;51.47;29.77;;;5.30;1.00;;;;;;4988458;28;20518;-58
2022/12/04 04:03:28;;;;;;;52.97;30.20;;;5.20;1.00;;;;;;4989054;28;20514;-58
2022/12/04 04:06:05;;;;;;;47.60;28.20;;;5.20;1.00;;;;;;4985010;28;20958;-58
2022/12/04 04:08:36;;;;;;;46.50;27.63;;;5.20;1.00;;;;;;4988808;28;20452;-58
2022/12/04 04:11:12;;;;;;;52.80;30.20;;;5.20;1.00;;;;;;4988106;28;20483;-58
2022/12/04 04:25:13;;;;;;;47.27;29.00;;;5.30;1.00;;;;;;4986050;28;20464;-59
2022/12/04 04:27:39;;;;;;;50.10;29.60;;;5.30;1.00;;;;;;4980449;28;20451;-58
2022/12/04 04:30:06;;;;;;;53.13;29.17;;;5.30;1.00;;;;;;4983324;28;20457;-58
2022/12/04 04:32:47;;;;;;;52.70;29.90;;;5.20;1.00;;;;;;4985954;28;20240;-56
2022/12/04 04:35:13;;;;;;;54.00;30.43;;;5.20;1.00;;;;;;4992671;28;20459;-57
2022/12/04 04:38:00;;;;;;;48.87;28.30;;;5.20;1.00;;;;;;4990887;28;20460;-57
2022/12/04 04:40:32;;;;;;;56.50;28.83;;;5.10;1.00;;;;;;4996506;28;20607;-57
2022/12/04 04:43:23;;;;;;;54.40;28.67;;;5.20;1.00;;;;;;4994277;28;20483;-59
2022/12/04 04:46:07;;;;;;;47.10;28.10;;;5.20;1.00;;;;;;4987821;28;20541;-59
2022/12/04 04:48:47;;;;;;;47.57;29.07;;;5.30;1.00;;;;;;4987076;28;20491;-56
2022/12/04 04:51:13;;;;;;;50.37;29.37;;;5.30;1.00;;;;;;4991300;28;20492;-58
2022/12/04 04:53:48;;;;;;;56.43;28.20;;;5.30;1.00;;;;;;4990172;28;20460;-60
2022/12/04 04:56:14;;;;;;;45.30;28.10;;;5.30;1.00;;;;;;4968217;28;20443;-58
2022/12/04 04:58:41;;;;;;;42.83;28.80;;;5.30;1.00;;;;;;4984409;28;20460;-57
2022/12/04 05:01:17;;;;;;;52.03;29.90;;;5.30;1.00;;;;;;4987690;28;20507;-58
2022/12/04 05:03:42;;;;;;;51.70;31.93;;;5.30;1.00;;;;;;4987363;28;20451;-58
2022/12/04 05:06:08;;;;;;;50.13;27.60;;;5.30;1.00;;;;;;4982160;28;20448;-57
2022/12/04 05:08:35;;;;;;;52.23;30.17;;;5.30;1.00;;;;;;4988798;28;20269;-58
2022/12/04 05:11:01;;;;;;;48.93;29.53;;;5.30;1.00;;;;;;4988740;28;21035;-59
2022/12/04 05:13:28;;;;;;;46.47;29.50;;;5.30;1.00;;;;;;4989547;28;20881;-57
2022/12/04 05:15:57;;;;;;;54.00;30.30;;;5.30;1.00;;;;;;4990975;28;20484;-57
2022/12/04 05:18:23;;;;;;;54.20;31.30;;;5.20;1.00;;;;;;4988820;28;20459;-56
2022/12/04 05:20:48;;;;;;;58.50;30.90;;;5.10;1.00;;;;;;4990145;28;20468;-58
2022/12/04 05:23:14;;;;;;;49.33;29.73;;;5.20;1.00;;;;;;4988473;28;20198;-58
2022/12/04 05:25:39;;;;;;;54.00;30.80;;;5.30;1.00;;;;;;4987706;28;20189;-58
2022/12/04 05:28:05;;;;;;;52.80;30.10;;;5.30;1.00;;;;;;4988112;28;20559;-57
2022/12/04 05:30:31;;;;;;;53.17;30.10;;;5.30;1.00;;;;;;4990017;28;20272;-57
2022/12/04 05:32:56;;;;;;;45.03;28.70;;;5.40;1.00;;;;;;4988676;28;20192;-58
2022/12/04 05:35:22;;;;;;;48.20;27.57;;;5.30;1.00;;;;;;4984268;28;20201;-57
2022/12/04 05:37:48;;;;;;;50.17;30.00;;;5.30;1.00;;;;;;4985583;28;20571;-57
2022/12/04 05:40:14;;;;;;;53.53;30.00;;;5.30;1.00;;;;;;4972385;28;20200;-58
2022/12/04 05:42:39;;;;;;;45.40;27.37;;;5.40;1.00;;;;;;4984908;28;20591;-57
2022/12/04 05:45:05;;;;;;;52.57;30.47;;;5.40;1.00;;;;;;4986670;28;20213;-57
2022/12/04 05:47:31;;;;;;;53.33;30.17;;;5.40;1.00;;;;;;4990383;28;20237;-58
2022/12/04 05:49:57;;;;;;;50.83;29.93;;;5.50;1.00;;;;;;4989300;28;21016;-57
2022/12/04 05:52:22;;;;;;;55.07;29.77;;;5.50;1.00;;;;;;4989014;28;20234;-57
2022/12/04 05:54:48;;;;;;;50.83;30.90;;;5.50;1.00;;;;;;4968395;28;20444;-59
2022/12/04 05:57:13;;;;;;;56.27;30.87;;;5.50;1.00;;;;;;4985641;28;20191;-59
2022/12/04 05:59:39;;;;;;;55.80;30.10;;;5.60;1.00;;;;;;4989969;28;20197;-57
2022/12/04 06:02:05;;;;;;;53.60;31.40;;;5.60;1.00;;;;;;4983864;28;20201;-58
2022/12/04 06:04:30;;;;;;;48.50;29.83;;;5.60;1.00;;;;;;4985703;28;20539;-57
2022/12/04 06:06:56;;;;;;;47.87;30.87;;;5.50;1.00;;;;;;4990454;28;20205;-57
2022/12/04 06:09:22;;;;;;;53.40;29.60;;;5.50;1.00;;;;;;4987559;28;20272;-57
2022/12/04 06:11:47;;;;;;;55.40;32.27;;;5.40;1.00;;;;;;4982092;28;20194;-58
2022/12/04 06:14:14;;;;;;;49.70;29.90;;;5.40;1.00;;;;;;4985599;28;20193;-57
2022/12/04 06:16:43;;;;;;;58.13;31.20;;;5.40;1.00;;;;;;4995840;28;20198;-57
2022/12/04 06:19:12;;;;;;;54.83;32.73;;;5.40;1.00;;;;;;4985991;28;20988;-57
2022/12/04 06:21:40;;;;;;;53.37;30.80;;;5.40;1.00;;;;;;4987719;28;21003;-58
2022/12/04 06:24:07;;;;;;;54.03;30.17;;;5.30;1.00;;;;;;4984868;28;20472;-58
2022/12/04 06:26:33;;;;;;;49.73;31.30;;;5.30;1.00;;;;;;4986549;28;20454;-59
2022/12/04 06:28:59;;;;;;;54.53;30.43;;;5.30;1.00;;;;;;4987394;28;20957;-58
2022/12/04 06:31:27;;;;;;;52.27;31.90;;;5.40;1.00;;;;;;4986274;28;20245;-57
2022/12/04 06:33:53;;;;;;;52.57;31.43;;;5.30;1.00;;;;;;4986199;28;20184;-57
2022/12/04 06:36:20;;;;;;;59.47;34.50;;;5.40;1.00;;;;;;4985993;28;20502;-57
2022/12/04 06:38:48;;;;;;;53.80;30.40;;;5.40;1.00;;;;;;4985045;28;20415;-58
2022/12/04 06:41:15;;;;;;;58.40;32.30;;;5.40;1.00;;;;;;4987100;28;20826;-57
2022/12/04 06:43:41;;;;;;;53.67;30.00;;;5.50;1.00;;;;;;4973274;28;20539;-56
2022/12/04 06:46:13;;;;;;;54.00;32.03;;;5.10;1.00;;;;;;4983791;28;20523;-58
2022/12/04 06:48:39;;;;;;;56.60;32.10;;;5.40;1.00;;;;;;4986275;28;20821;-58
2022/12/04 06:51:10;;;;;;;54.23;31.53;;;5.40;1.00;;;;;;4986344;28;20502;-57
2022/12/04 06:53:37;;;;;;;49.23;29.87;;;5.40;1.00;;;;;;4981178;28;20464;-58
2022/12/04 06:56:05;;;;;;;58.33;32.33;;;5.40;1.00;;;;;;4988667;28;20458;-58
2022/12/04 06:58:32;;;;;;;55.63;32.43;;;5.40;1.00;;;;;;4986648;28;20423;-58
2022/12/04 07:00:58;;;;;;;54.00;31.97;;;5.50;1.00;;;;;;4986697;28;20450;-58
2022/12/04 07:03:24;;;;;;;50.30;30.73;;;5.50;1.00;;;;;;4981552;28;20460;-58
2022/12/04 07:05:50;;;;;;;60.80;33.73;;;5.60;1.00;;;;;;4988430;28;20193;-57
2022/12/04 07:08:16;;;;;;;57.37;33.67;;;5.60;1.00;;;;;;4984455;28;20500;-57
2022/12/04 07:10:42;;;;;;;55.07;32.60;;;5.60;1.00;;;;;;4988627;28;20456;-57
2022/12/04 07:13:09;;;;;;;56.57;32.40;;;5.50;1.00;;;;;;4984041;28;21026;-58
2022/12/04 07:15:36;;;;;;;57.63;31.70;;;5.60;1.00;;;;;;5007367;28;20790;-58
2022/12/04 07:18:02;;;;;;;55.00;31.80;;;5.60;1.00;;;;;;4994311;28;20898;-57
2022/12/04 07:20:28;;;;;;;56.93;33.53;;;5.70;1.00;;;;;;4985916;28;20718;-57
2022/12/04 07:22:53;;;;;;;57.30;33.80;;;5.80;1.00;;;;;;4985374;28;21062;-57
2022/12/04 07:25:19;;;;;;;64.73;33.93;;;5.90;1.00;;;;;;4990325;28;20182;-56
2022/12/04 07:27:45;;;;;;;55.83;32.93;;;5.90;1.00;;;;;;4982284;28;20298;-56
2022/12/04 07:30:11;;;;;;;53.93;31.63;;;5.90;1.00;;;;;;4976466;28;20611;-57
2022/12/04 07:32:37;;;;;;;50.33;31.27;;;5.90;1.00;;;;;;4982949;28;20577;-58
2022/12/04 07:35:04;;;;;;;55.47;34.00;;;5.90;1.00;;;;;;4987571;28;20791;-57
2022/12/04 07:37:30;;;;;;;53.40;32.70;;;5.90;1.00;;;;;;4987654;28;20445;-58
2022/12/04 07:39:55;;;;;;;52.00;32.60;;;5.90;1.00;;;;;;4985448;28;20501;-57
2022/12/04 07:42:21;;;;;;;57.67;31.00;;;5.90;1.00;;;;;;4992446;28;20336;-59
2022/12/04 07:44:46;;;;;;;49.17;31.07;;;5.90;1.00;;;;;;4985203;28;20189;-58
2022/12/04 07:47:12;;;;;;;53.23;32.30;;;5.90;1.00;;;;;;4983888;28;20221;-56
2022/12/04 07:49:38;;;;;;;53.50;30.40;;;5.90;1.00;;;;;;4988023;28;20190;-59
2022/12/04 07:52:04;;;;;;;56.57;31.70;;;5.80;1.00;;;;;;4982770;28;20541;-57
2022/12/04 07:54:30;;;;;;;60.90;34.73;;;5.80;1.00;;;;;;4989012;28;20195;-59
2022/12/04 07:56:56;;;;;;;61.00;35.20;;;5.90;1.00;;;;;;4967919;28;20460;-58
2022/12/04 07:59:22;;;;;;;54.23;30.67;;;5.90;1.00;;;;;;4986446;28;20827;-58
2022/12/04 08:01:47;;;;;;;53.03;30.90;;;5.90;1.00;;;;;;4984213;28;21157;-58
2022/12/04 08:04:13;;;;;;;45.37;30.10;;;6.00;1.00;;;;;;4985906;28;20200;-58
2022/12/04 08:06:39;;;;;;;57.90;33.97;;;6.00;1.00;;;;;;4989354;28;20176;-58
2022/12/04 08:09:05;;;;;;;46.87;29.47;;;6.10;1.00;;;;;;4986994;28;20190;-59
2022/12/04 08:11:31;;;;;;;51.60;30.80;;;6.10;1.00;;;;;;4989405;28;20455;-58
2022/12/04 08:14:02;;;;;;;53.07;30.40;;;6.10;1.00;;;;;;4991707;28;20458;-58
2022/12/04 08:16:30;;;;;;;60.73;31.70;;;6.20;1.00;;;;;;4990734;28;20291;-57
2022/12/04 08:18:57;;;;;;;58.90;31.40;;;6.20;1.00;;;;;;4986766;28;20596;-56
2022/12/04 08:21:25;;;;;;;51.63;30.47;;;6.20;1.00;;;;;;4996633;28;20465;-55
2022/12/04 08:23:52;;;;;;;53.97;32.37;;;6.20;1.00;;;;;;5002507;28;20440;-59
2022/12/04 08:26:19;;;;;;;49.20;31.70;;;6.30;1.00;;;;;;4994411;28;21027;-59
2022/12/04 08:28:45;;;;;;;49.03;28.30;;;6.30;1.00;;;;;;4988877;28;20452;-58
2022/12/04 08:31:13;;;;;;;45.67;29.73;;;6.40;1.00;;;;;;4988999;28;20518;-58
2022/12/04 08:33:40;;;;;;;48.60;29.50;;;6.40;1.00;;;;;;4973759;28;20195;-58
2022/12/04 08:36:11;;;;;;;53.33;30.10;;;6.40;1.00;;;;;;4989692;28;20418;-58
2022/12/04 08:38:37;;;;;;;48.40;28.93;;;6.50;1.00;;;;;;4987958;28;20452;-59
2022/12/04 08:41:05;;;;;;;50.90;30.97;;;6.60;1.00;;;;;;4990451;28;20453;-59
2022/12/04 08:43:31;;;;;;;54.43;31.83;;;6.60;1.00;;;;;;4985883;28;20193;-58
2022/12/04 08:46:01;;;;;;;56.83;33.00;;;6.60;1.00;;;;;;4989608;28;20445;-59
2022/12/04 08:48:28;;;;;;;51.73;32.10;;;6.60;1.00;;;;;;4991928;28;20436;-60
2022/12/04 08:50:54;;;;;;;46.73;29.90;;;6.50;1.00;;;;;;4989955;28;20539;-57
2022/12/04 08:53:20;;;;;;;56.70;31.93;;;6.50;1.00;;;;;;5003580;28;20459;-60
2022/12/04 08:55:46;;;;;;;52.97;30.83;;;6.60;1.00;;;;;;5008399;28;20455;-59
2022/12/04 08:58:12;;;;;;;45.63;30.53;;;6.60;1.00;;;;;;4991883;28;20436;-59
2022/12/04 09:00:38;;;;;;;46.93;30.53;;;6.70;1.00;;;;;;4990199;28;20248;-58
2022/12/04 09:03:03;;;;;;;53.03;31.77;;;6.80;1.00;;;;;;4989392;28;20190;-59
2022/12/04 09:05:29;;;;;;;50.37;31.33;;;6.70;1.00;;;;;;4990879;28;20552;-60
2022/12/04 09:07:56;;;;;;;56.33;32.03;;;6.80;1.00;;;;;;4994272;28;20563;-59
2022/12/04 09:10:22;;;;;;;56.27;31.10;;;6.70;1.00;;;;;;5001096;28;20193;-60
2022/12/04 09:12:48;;;;;;;61.13;35.20;;;6.70;1.00;;;;;;4989047;28;20585;-58
2022/12/04 09:15:14;;;;;;;55.57;31.60;;;8.20;1.00;;;;;;4992086;28;20416;-58
2022/12/04 09:17:39;;;;;;;54.33;33.60;;;6.70;1.00;;;;;;4990502;28;20186;-59
2022/12/04 09:20:06;;;;;;;50.80;30.40;;;6.70;1.00;;;;;;4991769;28;20366;-58
2022/12/04 09:22:36;;;;;;;49.13;29.30;;;6.70;1.00;;;;;;4988293;28;20199;-58
2022/12/04 09:25:03;;;;;;;52.47;31.60;;;6.70;1.00;;;;;;4996086;28;20777;-59
2022/12/04 09:27:34;;;;;;;50.43;30.77;;;6.70;1.00;;;;;;4975946;28;20441;-59
2022/12/04 09:29:59;;;;;;;47.90;32.13;;;6.80;1.00;;;;;;4989498;28;20916;-58
2022/12/04 09:32:25;;;;;;;50.23;31.43;;;6.80;1.00;;;;;;4990833;28;20456;-59
2022/12/04 09:34:50;;;;;;;44.00;29.00;;;6.80;1.00;;;;;;4989229;28;20852;-60
2022/12/04 09:37:17;;;;;;;49.10;29.50;;;6.80;1.00;;;;;;4973326;28;20243;-60
2022/12/04 09:39:44;;;;;;;52.57;33.17;;;6.90;1.00;;;;;;4984308;28;20189;-61
2022/12/04 09:42:16;;;;;;;50.80;31.60;;;6.50;1.00;;;;;;4991066;28;20457;-60
2022/12/04 09:44:56;;;;;;;52.50;32.17;;;7.00;1.00;;;;;;4984391;28;20448;-60
2022/12/04 09:47:30;;;;;;;53.87;34.00;;;7.10;1.00;;;;;;4989406;28;20524;-60
2022/12/04 09:50:09;;;;;;;51.37;32.40;;;7.30;1.00;;;;;;4986915;28;20529;-60
2022/12/04 09:52:50;;;;;;;50.00;32.13;;;7.40;1.00;;;;;;4988771;28;20475;-60
2022/12/04 09:55:48;;;;;;;49.80;30.43;;;7.40;1.00;;;;;;4988880;28;20457;-61
2022/12/04 09:58:19;;;;;;;50.80;30.60;;;7.50;1.00;;;;;;4950680;28;20459;-60
2022/12/04 10:00:48;;;;;;;54.30;34.47;;;7.60;1.00;;;;;;4983515;28;21851;-61
2022/12/04 10:03:19;;;;;;;49.00;34.60;;;7.80;1.00;;;;;;4985503;28;20452;-60
2022/12/04 10:06:04;;;;;;;56.33;34.40;;;7.80;1.00;;;;;;4984723;28;20459;-60
2022/12/04 10:08:59;;;;;;;52.67;33.37;;;7.70;1.00;;;;;;4971559;28;20479;-60
2022/12/04 10:11:25;;;;;;;49.03;31.87;;;7.80;1.00;;;;;;4985089;28;20447;-59
2022/12/04 10:14:15;;;;;;;52.10;32.97;;;7.80;1.00;;;;;;4985247;28;20457;-59
2022/12/04 10:17:02;;;;;;;52.20;32.20;;;7.80;1.00;;;;;;4984571;28;20215;-60
2022/12/04 10:19:45;;;;;;;45.47;29.83;;;7.80;1.00;;;;;;4969227;28;20551;-59
2022/12/04 10:22:18;;;;;;;49.33;33.63;;;7.90;1.00;;;;;;4994866;28;20930;-59
2022/12/04 10:25:03;;;;;;;52.00;31.93;;;8.00;1.00;;;;;;4990274;28;20445;-58
2022/12/04 10:27:43;;;;;;;53.33;31.93;;;7.90;1.00;;;;;;4988543;28;20461;-58
2022/12/04 10:30:19;;;;;;;57.80;34.63;;;7.90;1.00;;;;;;4988922;28;20775;-60
2022/12/04 10:32:45;;;;;;;44.23;30.10;;;7.90;1.00;;;;;;4991104;28;20695;-60
2022/12/04 10:35:20;;;;;;;55.93;34.20;;;7.80;1.00;;;;;;4988842;28;20464;-60
2022/12/04 10:37:50;;;;;;;47.90;31.80;;;7.90;1.00;;;;;;4988301;28;20992;-60
2022/12/04 10:40:26;;;;;;;52.53;33.33;;;7.80;1.00;;;;;;4984207;28;20483;-59
2022/12/04 10:43:15;;;;;;;48.43;33.00;;;7.80;1.00;;;;;;4987869;28;20592;-60
2022/12/04 10:45:41;;;;;;;55.63;35.70;;;7.80;1.00;;;;;;4989731;28;20438;-59
2022/12/04 10:48:18;;;;;;;66.70;40.03;;;7.80;1.00;;;;;;4983696;28;21232;-60
2022/12/04 10:50:44;;;;;;;54.77;34.20;;;7.80;1.00;;;;;;4989840;28;20456;-58
2022/12/04 10:53:13;;;;;;;51.13;32.60;;;7.90;1.00;;;;;;4987494;28;20461;-60
2022/12/04 10:55:39;;;;;;;58.30;37.07;;;7.90;1.00;;;;;;4989028;28;20703;-59
2022/12/04 10:58:16;;;;;;;49.33;31.33;;;8.00;1.00;;;;;;4985093;28;20607;-59
2022/12/04 11:00:44;;;;;;;44.27;27.93;;;8.00;1.00;;;;;;4974002;28;20212;-60
2022/12/04 11:03:23;;;;;;;50.27;29.87;;;8.10;1.00;;;;;;4989082;28;20452;-59
2022/12/04 11:05:55;;;;;;;54.17;34.53;;;8.10;1.00;;;;;;4986104;28;20462;-60
2022/12/04 11:08:32;;;;;;;47.63;33.63;;;8.40;1.00;;;;;;4987899;28;20428;-60
2022/12/04 11:11:10;;;;;;;37.53;25.87;;;8.40;1.00;;;;;;4988652;28;20985;-60
2022/12/04 11:13:36;;;;;;;49.30;30.83;;;8.30;1.00;;;;;;4987689;28;20780;-61
2022/12/04 11:16:03;;;;;;;42.80;26.17;;;8.40;1.00;;;;;;5007953;28;20439;-60
2022/12/04 11:18:32;;;;;;;40.70;25.67;;;8.40;1.00;;;;;;4987647;28;20505;-58
2022/12/04 11:21:01;;;;;;;39.63;25.80;;;8.50;1.00;;;;;;4988943;28;21209;-61
2022/12/04 11:23:41;;;;;;;37.30;25.70;;;8.40;1.00;;;;;;4994549;28;20448;-61
2022/12/04 11:26:08;;;;;;;44.13;26.57;;;8.40;1.00;;;;;;5004855;28;20449;-62
2022/12/04 11:28:35;;;;;;;39.23;26.30;;;8.50;1.00;;;;;;4988467;28;20480;-61
2022/12/04 11:31:04;;;;;;;42.47;27.67;;;8.60;1.00;;;;;;4988416;28;20456;-63
2022/12/04 11:33:52;;;;;;;43.23;27.50;;;8.50;1.00;;;;;;4979478;28;20532;-62
2022/12/04 11:36:28;;;;;;;38.83;26.10;;;8.50;1.00;;;;;;4986896;28;20465;-62
2022/12/04 11:39:05;;;;;;;43.57;27.83;;;8.50;1.00;;;;;;4985061;28;20494;-62
2022/12/04 11:41:32;;;;;;;41.27;26.80;;;8.40;1.00;;;;;;4982760;28;20445;-62
2022/12/04 11:43:59;;;;;;;43.67;27.10;;;8.40;1.00;;;;;;4982359;28;20477;-58
2022/12/04 11:46:28;;;;;;;48.60;29.53;;;8.40;1.00;;;;;;4994855;28;20830;-57
2022/12/04 11:48:53;;;;;;;41.90;26.10;;;8.40;1.00;;;;;;4998313;28;20491;-57
2022/12/04 11:51:40;;;;;;;40.37;27.70;;;8.40;1.00;;;;;;4999673;28;20831;-56
2022/12/04 11:54:11;;;;;;;44.10;28.43;;;8.30;1.00;;;;;;4990909;28;20294;-57
2022/12/04 11:56:59;;;;;;;43.03;27.53;;;8.30;1.00;;;;;;4992503;28;20408;-57
2022/12/04 11:59:53;;;;;;;47.03;26.03;;;8.20;1.00;;;;;;4986369;28;20454;-56
2022/12/04 12:02:40;;;;;;;44.57;28.80;;;8.20;1.00;;;;;;4991760;28;20783;-57
2022/12/04 12:05:37;;;;;;;38.27;27.27;;;8.20;1.00;;;;;;5001195;28;20467;-56
2022/12/04 12:08:31;;;;;;;43.80;27.87;;;8.20;1.00;;;;;;4997219;28;20496;-58
2022/12/04 12:11:05;;;;;;;45.10;29.20;;;8.20;1.00;;;;;;4991726;28;20461;-55
2022/12/04 12:14:26;;;;;;;40.40;27.67;;;8.20;1.00;;;;;;4989353;28;21003;-55
2022/12/04 12:17:15;;;;;;;45.30;28.17;;;8.20;1.00;;;;;;4953876;28;20451;-58
2022/12/04 12:20:02;;;;;;;43.43;28.67;;;8.20;1.00;;;;;;4991855;28;20528;-57
2022/12/04 12:22:46;;;;;;;46.57;30.60;;;8.20;1.00;;;;;;4988935;28;20546;-56
2022/12/04 12:25:28;;;;;;;44.37;27.53;;;8.20;1.00;;;;;;4991909;28;20451;-55
2022/12/04 12:28:18;;;;;;;46.30;30.17;;;8.20;1.00;;;;;;4987897;28;20529;-56
2022/12/04 12:30:59;;;;;;;47.30;31.50;;;8.10;1.00;;;;;;4985755;28;20801;-56
2022/12/04 12:33:29;;;;;;;47.90;31.87;;;8.00;1.00;;;;;;4981448;28;21222;-56
2022/12/04 12:36:01;;;;;;;45.47;30.20;;;8.00;1.00;;;;;;4987727;28;20472;-56
2022/12/04 12:38:55;;;;;;;55.30;30.43;;;8.00;1.00;;;;;;4992899;28;20460;-56
2022/12/04 12:41:31;;;;;;;57.73;33.27;;;7.90;1.00;;;;;;4983366;28;20546;-56
2022/12/04 12:44:25;;;;;;;50.87;31.30;;;7.80;1.00;;;;;;4972243;28;20866;-57
2022/12/04 12:46:55;;;;;;;48.73;33.23;;;7.80;1.00;;;;;;4956741;28;20485;-57
2022/12/04 12:49:52;;;;;;;54.30;33.10;;;7.80;1.00;;;;;;4990639;28;20793;-57
2022/12/04 12:52:37;;;;;;;49.43;31.60;;;7.80;1.00;;;;;;4984702;28;20475;-57
2022/12/04 12:55:22;;;;;;;53.17;31.10;;;7.80;1.00;;;;;;4987726;28;20449;-56
2022/12/04 12:58:17;;;;;;;60.53;33.37;;;7.80;1.00;;;;;;4985059;28;20544;-56
2022/12/04 13:00:59;;;;;;;51.10;31.23;;;7.80;1.00;;;;;;4987174;28;20506;-56
2022/12/04 13:03:37;;;;;;;56.53;32.53;;;7.80;1.00;;;;;;4986730;28;21067;-56
2022/12/04 13:06:09;;;;;;;58.43;35.10;;;7.80;1.00;;;;;;4989814;28;20491;-56
2022/12/04 13:08:58;;;;;;;56.73;33.17;;;7.70;1.00;;;;;;4988359;28;20488;-56
2022/12/04 13:11:26;;;;;;;56.50;34.47;;;7.70;1.00;;;;;;4979497;28;20465;-56
2022/12/04 13:13:55;;;;;;;52.77;34.10;;;7.70;1.00;;;;;;4991925;28;20858;-57
2022/12/04 13:16:46;;;;;;;55.03;34.47;;;7.70;1.00;;;;;;4989651;28;20430;-58
2022/12/04 13:19:15;;;;;;;55.73;34.20;;;7.70;1.00;;;;;;4989291;28;20453;-56
2022/12/04 13:22:05;;;;;;;57.47;33.40;;;7.80;1.00;;;;;;4991969;28;20460;-56
2022/12/04 13:24:56;;;;;;;59.17;33.17;;;7.80;1.00;;;;;;4990517;28;20417;-56